sensor_id;sensor_type;location;lat;lon;timestamp;temperature;humidity
47765;DHT22;33529;49.242;8.670;2023-06-24T00:00:12;18.10;99.90
47765;DHT22;33529;49.242;8.670;2023-06-24T00:02:43;18.00;99.90
47765;DHT22;33529;49.242;8.670;2023-06-24T00:05:12;18.10;99.90
47765;DHT22;33529;49.242;8.670;2023-06-24T00:07:39;18.10;99.90
47765;DHT22;33529;49.242;8.670;2023-06-24T00:10:13;18.10;99.90
47765;DHT22;33529;49.242;8.670;2023-06-24T00:12:41;18.10;99.90
47765;DHT22;33529;49.242;8.670;2023-06-24T00:15:09;18.00;99.90
47765;DHT22;33529;49.242;8.670;2023-06-24T00:17:36;18.00;99.90
47765;DHT22;33529;49.242;8.670;2023-06-24T00:20:05;17.90;99.90
47765;DHT22;33529;49.242;8.670;2023-06-24T00:22:37;17.90;99.90
47765;DHT22;33529;49.242;8.670;2023-06-24T00:25:11;17.90;99.90
47765;DHT22;33529;49.242;8.670;2023-06-24T00:27:38;18.00;99.90
47765;DHT22;33529;49.242;8.670;2023-06-24T00:30:05;17.80;99.90
47765;DHT22;33529;49.242;8.670;2023-06-24T00:32:34;17.80;99.90
47765;DHT22;33529;49.242;8.670;2023-06-24T00:35:03;17.80;99.90
47765;DHT22;33529;49.242;8.670;2023-06-24T00:37:30;17.80;99.90
47765;DHT22;33529;49.242;8.670;2023-06-24T00:39:57;17.80;99.90
47765;DHT22;33529;49.242;8.670;2023-06-24T00:42:24;17.70;99.90
47765;DHT22;33529;49.242;8.670;2023-06-24T00:44:51;17.60;99.90
47765;DHT22;33529;49.242;8.670;2023-06-24T00:47:18;17.60;99.90
47765;DHT22;33529;49.242;8.670;2023-06-24T00:49:45;17.50;99.90
47765;DHT22;33529;49.242;8.670;2023-06-24T00:52:12;17.50;99.90
47765;DHT22;33529;49.242;8.670;2023-06-24T00:54:45;17.50;99.90
47765;DHT22;33529;49.242;8.670;2023-06-24T00:57:12;17.40;99.90
47765;DHT22;33529;49.242;8.670;2023-06-24T00:59:40;17.40;99.90
47765;DHT22;33529;49.242;8.670;2023-06-24T01:02:10;17.40;99.90
47765;DHT22;33529;49.242;8.670;2023-06-24T01:04:37;17.30;99.90
47765;DHT22;33529;49.242;8.670;2023-06-24T01:07:05;17.20;99.90
47765;DHT22;33529;49.242;8.670;2023-06-24T01:09:35;17.20;99.90
47765;DHT22;33529;49.242;8.670;2023-06-24T01:12:02;17.20;99.90
47765;DHT22;33529;49.242;8.670;2023-06-24T01:14:30;17.20;99.90
47765;DHT22;33529;49.242;8.670;2023-06-24T01:17:08;17.10;99.90
47765;DHT22;33529;49.242;8.670;2023-06-24T01:36:30;16.90;99.90
47765;DHT22;33529;49.242;8.670;2023-06-24T01:39:02;16.90;99.90
47765;DHT22;33529;49.242;8.670;2023-06-24T01:41:36;16.80;99.90
47765;DHT22;33529;49.242;8.670;2023-06-24T01:44:09;16.70;99.90
47765;DHT22;33529;49.242;8.670;2023-06-24T01:46:38;16.60;99.90
47765;DHT22;33529;49.242;8.670;2023-06-24T01:49:08;16.60;99.90
47765;DHT22;33529;49.242;8.670;2023-06-24T01:51:38;16.50;99.90
47765;DHT22;33529;49.242;8.670;2023-06-24T01:54:12;16.50;99.90
47765;DHT22;33529;49.242;8.670;2023-06-24T01:56:41;16.40;99.90
47765;DHT22;33529;49.242;8.670;2023-06-24T01:59:10;16.40;99.90
47765;DHT22;33529;49.242;8.670;2023-06-24T02:01:38;16.40;99.90
47765;DHT22;33529;49.242;8.670;2023-06-24T02:04:08;16.40;99.90
47765;DHT22;33529;49.242;8.670;2023-06-24T02:06:36;16.50;99.90
47765;DHT22;33529;49.242;8.670;2023-06-24T02:09:05;16.40;99.90
47765;DHT22;33529;49.242;8.670;2023-06-24T02:11:34;16.30;99.90
47765;DHT22;33529;49.242;8.670;2023-06-24T02:14:04;16.30;99.90
47765;DHT22;33529;49.242;8.670;2023-06-24T02:16:33;16.20;99.90
47765;DHT22;33529;49.242;8.670;2023-06-24T02:19:02;16.10;99.90
47765;DHT22;33529;49.242;8.670;2023-06-24T02:21:32;16.10;99.90
47765;DHT22;33529;49.242;8.670;2023-06-24T02:24:02;16.00;99.90
47765;DHT22;33529;49.242;8.670;2023-06-24T02:26:31;16.00;99.90
47765;DHT22;33529;49.242;8.670;2023-06-24T02:28:58;16.00;99.90
47765;DHT22;33529;49.242;8.670;2023-06-24T02:31:26;16.00;99.90
47765;DHT22;33529;49.242;8.670;2023-06-24T02:33:53;15.80;99.90
47765;DHT22;33529;49.242;8.670;2023-06-24T02:36:20;15.70;99.90
47765;DHT22;33529;49.242;8.670;2023-06-24T02:38:48;15.60;99.90
47765;DHT22;33529;49.242;8.670;2023-06-24T02:41:16;15.60;99.90
47765;DHT22;33529;49.242;8.670;2023-06-24T02:43:43;15.60;99.90
47765;DHT22;33529;49.242;8.670;2023-06-24T02:46:10;15.60;99.90
47765;DHT22;33529;49.242;8.670;2023-06-24T02:48:40;15.60;99.90
47765;DHT22;33529;49.242;8.670;2023-06-24T02:51:09;15.50;99.90
47765;DHT22;33529;49.242;8.670;2023-06-24T02:53:38;15.50;99.90
47765;DHT22;33529;49.242;8.670;2023-06-24T02:56:07;15.40;99.90
47765;DHT22;33529;49.242;8.670;2023-06-24T02:58:37;15.40;99.90
47765;DHT22;33529;49.242;8.670;2023-06-24T03:01:16;15.30;99.90
47765;DHT22;33529;49.242;8.670;2023-06-24T03:03:48;15.30;99.90
47765;DHT22;33529;49.242;8.670;2023-06-24T03:06:19;15.10;99.90
47765;DHT22;33529;49.242;8.670;2023-06-24T03:08:48;15.10;99.90
47765;DHT22;33529;49.242;8.670;2023-06-24T03:11:18;15.10;99.90
47765;DHT22;33529;49.242;8.670;2023-06-24T03:13:45;15.00;99.90
47765;DHT22;33529;49.242;8.670;2023-06-24T03:16:17;15.10;99.90
47765;DHT22;33529;49.242;8.670;2023-06-24T03:18:51;15.10;99.90
47765;DHT22;33529;49.242;8.670;2023-06-24T03:21:19;15.20;99.90
47765;DHT22;33529;49.242;8.670;2023-06-24T03:23:46;15.20;99.90
47765;DHT22;33529;49.242;8.670;2023-06-24T03:26:15;15.20;99.90
47765;DHT22;33529;49.242;8.670;2023-06-24T03:28:45;15.20;99.90
47765;DHT22;33529;49.242;8.670;2023-06-24T03:31:15;15.20;99.90
47765;DHT22;33529;49.242;8.670;2023-06-24T03:33:43;15.30;99.90
47765;DHT22;33529;49.242;8.670;2023-06-24T03:36:14;15.30;99.90
47765;DHT22;33529;49.242;8.670;2023-06-24T03:38:44;15.30;99.90
47765;DHT22;33529;49.242;8.670;2023-06-24T03:41:11;15.30;99.90
47765;DHT22;33529;49.242;8.670;2023-06-24T03:43:38;15.30;99.90
47765;DHT22;33529;49.242;8.670;2023-06-24T03:46:05;15.30;99.90
47765;DHT22;33529;49.242;8.670;2023-06-24T03:48:32;15.30;99.90
47765;DHT22;33529;49.242;8.670;2023-06-24T03:51:00;15.40;99.90
47765;DHT22;33529;49.242;8.670;2023-06-24T03:53:28;15.40;99.90
47765;DHT22;33529;49.242;8.670;2023-06-24T03:55:55;15.50;99.90
47765;DHT22;33529;49.242;8.670;2023-06-24T03:58:22;15.50;99.90
47765;DHT22;33529;49.242;8.670;2023-06-24T04:00:49;15.50;99.90
47765;DHT22;33529;49.242;8.670;2023-06-24T04:03:16;15.50;99.90
47765;DHT22;33529;49.242;8.670;2023-06-24T04:05:46;15.60;99.90
47765;DHT22;33529;49.242;8.670;2023-06-24T04:08:13;15.60;99.90
47765;DHT22;33529;49.242;8.670;2023-06-24T04:10:39;15.60;99.90
47765;DHT22;33529;49.242;8.670;2023-06-24T04:13:11;15.60;99.90
47765;DHT22;33529;49.242;8.670;2023-06-24T04:15:38;15.70;99.90
47765;DHT22;33529;49.242;8.670;2023-06-24T04:18:05;15.70;99.90
47765;DHT22;33529;49.242;8.670;2023-06-24T04:20:32;15.70;99.90
47765;DHT22;33529;49.242;8.670;2023-06-24T04:23:02;15.70;99.90
47765;DHT22;33529;49.242;8.670;2023-06-24T04:25:29;15.60;99.90
47765;DHT22;33529;49.242;8.670;2023-06-24T04:27:57;15.70;99.90
47765;DHT22;33529;49.242;8.670;2023-06-24T04:30:24;15.70;99.90
47765;DHT22;33529;49.242;8.670;2023-06-24T04:32:51;15.80;99.90
47765;DHT22;33529;49.242;8.670;2023-06-24T04:35:18;15.80;99.90
47765;DHT22;33529;49.242;8.670;2023-06-24T04:37:45;15.80;99.90
47765;DHT22;33529;49.242;8.670;2023-06-24T04:40:12;15.80;99.90
47765;DHT22;33529;49.242;8.670;2023-06-24T04:42:40;15.80;99.90
47765;DHT22;33529;49.242;8.670;2023-06-24T04:45:07;15.80;99.90
47765;DHT22;33529;49.242;8.670;2023-06-24T04:47:34;15.90;99.90
47765;DHT22;33529;49.242;8.670;2023-06-24T04:50:01;15.90;99.90
47765;DHT22;33529;49.242;8.670;2023-06-24T04:52:28;15.90;99.90
47765;DHT22;33529;49.242;8.670;2023-06-24T04:54:55;15.90;99.90
47765;DHT22;33529;49.242;8.670;2023-06-24T04:57:29;16.00;99.90
47765;DHT22;33529;49.242;8.670;2023-06-24T04:59:57;16.10;99.90
47765;DHT22;33529;49.242;8.670;2023-06-24T05:02:24;16.30;99.90
47765;DHT22;33529;49.242;8.670;2023-06-24T05:04:52;16.30;99.90
47765;DHT22;33529;49.242;8.670;2023-06-24T05:07:19;16.50;99.90
47765;DHT22;33529;49.242;8.670;2023-06-24T05:09:48;16.60;99.90
47765;DHT22;33529;49.242;8.670;2023-06-24T05:12:15;16.60;99.90
47765;DHT22;33529;49.242;8.670;2023-06-24T05:14:42;16.80;99.90
47765;DHT22;33529;49.242;8.670;2023-06-24T05:17:09;16.90;99.90
47765;DHT22;33529;49.242;8.670;2023-06-24T05:19:36;17.10;99.90
47765;DHT22;33529;49.242;8.670;2023-06-24T05:22:03;17.20;99.90
47765;DHT22;33529;49.242;8.670;2023-06-24T05:24:30;17.30;99.90
47765;DHT22;33529;49.242;8.670;2023-06-24T05:27:04;17.40;99.90
47765;DHT22;33529;49.242;8.670;2023-06-24T05:29:33;17.70;99.90
47765;DHT22;33529;49.242;8.670;2023-06-24T05:32:00;17.80;99.90
47765;DHT22;33529;49.242;8.670;2023-06-24T05:34:29;18.00;99.90
47765;DHT22;33529;49.242;8.670;2023-06-24T05:36:58;18.10;99.90
47765;DHT22;33529;49.242;8.670;2023-06-24T05:39:25;18.30;99.90
47765;DHT22;33529;49.242;8.670;2023-06-24T05:41:52;18.30;99.90
47765;DHT22;33529;49.242;8.670;2023-06-24T05:44:19;18.50;99.90
47765;DHT22;33529;49.242;8.670;2023-06-24T05:46:46;18.70;99.90
47765;DHT22;33529;49.242;8.670;2023-06-24T05:49:13;18.80;99.90
47765;DHT22;33529;49.242;8.670;2023-06-24T05:51:40;18.90;99.90
47765;DHT22;33529;49.242;8.670;2023-06-24T05:54:07;19.10;99.90
47765;DHT22;33529;49.242;8.670;2023-06-24T05:56:34;19.30;99.90
47765;DHT22;33529;49.242;8.670;2023-06-24T05:59:05;19.50;99.90
47765;DHT22;33529;49.242;8.670;2023-06-24T06:01:32;19.70;99.90
47765;DHT22;33529;49.242;8.670;2023-06-24T06:03:59;19.70;99.90
47765;DHT22;33529;49.242;8.670;2023-06-24T06:06:26;19.90;99.90
47765;DHT22;33529;49.242;8.670;2023-06-24T06:08:53;20.00;99.90
47765;DHT22;33529;49.242;8.670;2023-06-24T06:11:19;20.20;99.90
47765;DHT22;33529;49.242;8.670;2023-06-24T06:13:46;20.40;99.90
47765;DHT22;33529;49.242;8.670;2023-06-24T06:16:13;20.50;99.90
47765;DHT22;33529;49.242;8.670;2023-06-24T06:18:40;20.70;99.90
47765;DHT22;33529;49.242;8.670;2023-06-24T06:21:07;20.90;99.90
47765;DHT22;33529;49.242;8.670;2023-06-24T06:23:34;20.80;99.90
47765;DHT22;33529;49.242;8.670;2023-06-24T06:26:00;20.80;99.90
47765;DHT22;33529;49.242;8.670;2023-06-24T06:28:27;20.90;99.90
47765;DHT22;33529;49.242;8.670;2023-06-24T06:30:54;21.20;99.90
47765;DHT22;33529;49.242;8.670;2023-06-24T06:33:21;21.30;99.90
47765;DHT22;33529;49.242;8.670;2023-06-24T06:35:50;21.40;99.90
47765;DHT22;33529;49.242;8.670;2023-06-24T06:38:17;21.40;99.90
47765;DHT22;33529;49.242;8.670;2023-06-24T06:40:43;21.40;99.90
47765;DHT22;33529;49.242;8.670;2023-06-24T06:43:13;21.60;99.90
47765;DHT22;33529;49.242;8.670;2023-06-24T06:45:40;21.90;99.90
47765;DHT22;33529;49.242;8.670;2023-06-24T06:48:07;21.90;99.90
47765;DHT22;33529;49.242;8.670;2023-06-24T06:50:35;21.80;99.90
47765;DHT22;33529;49.242;8.670;2023-06-24T06:53:02;22.00;99.90
47765;DHT22;33529;49.242;8.670;2023-06-24T06:55:29;22.30;99.90
47765;DHT22;33529;49.242;8.670;2023-06-24T06:57:56;22.60;99.90
47765;DHT22;33529;49.242;8.670;2023-06-24T07:00:23;22.80;99.90
47765;DHT22;33529;49.242;8.670;2023-06-24T07:02:52;22.70;99.90
47765;DHT22;33529;49.242;8.670;2023-06-24T07:05:19;22.80;99.90
47765;DHT22;33529;49.242;8.670;2023-06-24T07:07:46;23.10;99.90
47765;DHT22;33529;49.242;8.670;2023-06-24T07:10:13;23.20;99.90
47765;DHT22;33529;49.242;8.670;2023-06-24T07:12:40;23.30;99.90
47765;DHT22;33529;49.242;8.670;2023-06-24T07:15:07;23.50;99.90
47765;DHT22;33529;49.242;8.670;2023-06-24T07:17:38;23.50;99.90
47765;DHT22;33529;49.242;8.670;2023-06-24T07:20:05;23.40;99.90
47765;DHT22;33529;49.242;8.670;2023-06-24T07:22:32;23.40;99.90
47765;DHT22;33529;49.242;8.670;2023-06-24T07:24:59;23.50;99.90
47765;DHT22;33529;49.242;8.670;2023-06-24T07:27:29;23.50;99.90
47765;DHT22;33529;49.242;8.670;2023-06-24T07:29:56;23.80;99.90
47765;DHT22;33529;49.242;8.670;2023-06-24T07:32:23;24.10;99.90
47765;DHT22;33529;49.242;8.670;2023-06-24T07:34:50;24.10;99.90
47765;DHT22;33529;49.242;8.670;2023-06-24T07:37:17;24.20;99.20
47765;DHT22;33529;49.242;8.670;2023-06-24T07:39:51;24.40;98.30
47765;DHT22;33529;49.242;8.670;2023-06-24T07:42:17;24.60;97.20
47765;DHT22;33529;49.242;8.670;2023-06-24T07:44:46;24.60;98.70
47765;DHT22;33529;49.242;8.670;2023-06-24T07:47:14;24.80;97.80
47765;DHT22;33529;49.242;8.670;2023-06-24T07:49:40;24.90;97.30
47765;DHT22;33529;49.242;8.670;2023-06-24T07:52:07;25.00;97.80
47765;DHT22;33529;49.242;8.670;2023-06-24T07:54:34;25.10;97.50
47765;DHT22;33529;49.242;8.670;2023-06-24T07:57:02;25.20;95.80
47765;DHT22;33529;49.242;8.670;2023-06-24T07:59:29;25.40;95.60
47765;DHT22;33529;49.242;8.670;2023-06-24T08:01:56;25.50;96.00
47765;DHT22;33529;49.242;8.670;2023-06-24T08:04:23;25.30;95.40
47765;DHT22;33529;49.242;8.670;2023-06-24T08:06:50;25.50;94.60
47765;DHT22;33529;49.242;8.670;2023-06-24T08:09:17;25.40;95.00
47765;DHT22;33529;49.242;8.670;2023-06-24T08:11:44;25.50;97.00
47765;DHT22;33529;49.242;8.670;2023-06-24T08:14:11;25.70;95.10
47765;DHT22;33529;49.242;8.670;2023-06-24T08:16:38;25.90;95.00
47765;DHT22;33529;49.242;8.670;2023-06-24T08:19:04;26.00;95.50
47765;DHT22;33529;49.242;8.670;2023-06-24T08:21:31;26.30;95.10
47765;DHT22;33529;49.242;8.670;2023-06-24T08:23:59;26.30;92.20
47765;DHT22;33529;49.242;8.670;2023-06-24T08:26:26;26.50;92.10
47765;DHT22;33529;49.242;8.670;2023-06-24T08:28:52;26.70;91.90
47765;DHT22;33529;49.242;8.670;2023-06-24T08:31:19;26.80;91.00
47765;DHT22;33529;49.242;8.670;2023-06-24T08:33:52;26.50;91.70
47765;DHT22;33529;49.242;8.670;2023-06-24T08:36:23;26.60;91.00
47765;DHT22;33529;49.242;8.670;2023-06-24T08:38:50;26.40;91.00
47765;DHT22;33529;49.242;8.670;2023-06-24T08:41:17;26.40;91.20
47765;DHT22;33529;49.242;8.670;2023-06-24T08:43:44;26.30;90.30
47765;DHT22;33529;49.242;8.670;2023-06-24T08:46:13;26.30;91.30
47765;DHT22;33529;49.242;8.670;2023-06-24T08:48:42;26.20;90.60
47765;DHT22;33529;49.242;8.670;2023-06-24T08:51:14;26.20;91.40
47765;DHT22;33529;49.242;8.670;2023-06-24T08:53:43;26.30;91.90
47765;DHT22;33529;49.242;8.670;2023-06-24T08:56:11;26.50;91.60
47765;DHT22;33529;49.242;8.670;2023-06-24T08:58:38;26.90;91.40
47765;DHT22;33529;49.242;8.670;2023-06-24T09:01:06;27.10;91.10
47765;DHT22;33529;49.242;8.670;2023-06-24T09:03:34;27.30;90.40
47765;DHT22;33529;49.242;8.670;2023-06-24T09:06:01;27.60;87.90
47765;DHT22;33529;49.242;8.670;2023-06-24T09:08:27;27.70;86.80
47765;DHT22;33529;49.242;8.670;2023-06-24T09:10:55;27.80;88.40
47765;DHT22;33529;49.242;8.670;2023-06-24T09:13:34;27.70;88.60
47765;DHT22;33529;49.242;8.670;2023-06-24T09:16:12;27.90;85.00
47765;DHT22;33529;49.242;8.670;2023-06-24T09:18:41;27.80;83.80
47765;DHT22;33529;49.242;8.670;2023-06-24T09:21:10;27.80;83.40
47765;DHT22;33529;49.242;8.670;2023-06-24T09:23:37;27.90;85.10
47765;DHT22;33529;49.242;8.670;2023-06-24T09:26:04;27.90;85.50
47765;DHT22;33529;49.242;8.670;2023-06-24T09:28:31;28.10;86.00
47765;DHT22;33529;49.242;8.670;2023-06-24T09:31:08;28.10;82.70
47765;DHT22;33529;49.242;8.670;2023-06-24T09:33:39;28.20;80.80
47765;DHT22;33529;49.242;8.670;2023-06-24T09:36:06;28.10;78.50
47765;DHT22;33529;49.242;8.670;2023-06-24T09:38:37;27.70;78.50
47765;DHT22;33529;49.242;8.670;2023-06-24T09:41:05;27.40;78.40
47765;DHT22;33529;49.242;8.670;2023-06-24T09:43:41;27.40;80.40
47765;DHT22;33529;49.242;8.670;2023-06-24T09:46:11;27.50;79.10
47765;DHT22;33529;49.242;8.670;2023-06-24T09:48:39;27.70;82.20
47765;DHT22;33529;49.242;8.670;2023-06-24T09:51:07;27.40;78.70
47765;DHT22;33529;49.242;8.670;2023-06-24T09:53:35;27.60;78.30
47765;DHT22;33529;49.242;8.670;2023-06-24T09:56:07;27.70;81.50
47765;DHT22;33529;49.242;8.670;2023-06-24T09:58:39;28.00;80.30
47765;DHT22;33529;49.242;8.670;2023-06-24T10:01:07;28.10;80.10
47765;DHT22;33529;49.242;8.670;2023-06-24T10:03:38;28.20;79.10
47765;DHT22;33529;49.242;8.670;2023-06-24T10:06:06;28.40;78.80
47765;DHT22;33529;49.242;8.670;2023-06-24T10:08:33;28.20;77.40
47765;DHT22;33529;49.242;8.670;2023-06-24T10:11:00;28.40;78.10
47765;DHT22;33529;49.242;8.670;2023-06-24T10:13:28;28.60;76.50
47765;DHT22;33529;49.242;8.670;2023-06-24T10:15:56;28.60;76.70
47765;DHT22;33529;49.242;8.670;2023-06-24T10:21:03;28.90;79.30
47765;DHT22;33529;49.242;8.670;2023-06-24T10:23:42;29.10;74.90
47765;DHT22;33529;49.242;8.670;2023-06-24T10:26:10;29.10;74.70
47765;DHT22;33529;49.242;8.670;2023-06-24T10:37:09;29.10;72.20
47765;DHT22;33529;49.242;8.670;2023-06-24T10:39:42;29.00;69.60
47765;DHT22;33529;49.242;8.670;2023-06-24T10:44:55;28.60;74.10
47765;DHT22;33529;49.242;8.670;2023-06-24T10:47:23;28.60;73.80
47765;DHT22;33529;49.242;8.670;2023-06-24T10:49:50;28.40;73.40
47765;DHT22;33529;49.242;8.670;2023-06-24T10:52:19;28.20;74.00
47765;DHT22;33529;49.242;8.670;2023-06-24T10:54:50;27.90;74.10
47765;DHT22;33529;49.242;8.670;2023-06-24T10:57:25;27.70;75.00
47765;DHT22;33529;49.242;8.670;2023-06-24T10:59:54;27.50;74.20
47765;DHT22;33529;49.242;8.670;2023-06-24T11:02:26;27.60;74.00
47765;DHT22;33529;49.242;8.670;2023-06-24T11:04:58;27.60;74.10
47765;DHT22;33529;49.242;8.670;2023-06-24T11:07:27;27.70;74.60
47765;DHT22;33529;49.242;8.670;2023-06-24T11:09:56;27.70;75.50
47765;DHT22;33529;49.242;8.670;2023-06-24T11:12:29;27.70;75.10
47765;DHT22;33529;49.242;8.670;2023-06-24T11:15:08;28.10;75.80
47765;DHT22;33529;49.242;8.670;2023-06-24T11:17:36;28.40;75.50
47765;DHT22;33529;49.242;8.670;2023-06-24T11:20:10;28.60;73.50
47765;DHT22;33529;49.242;8.670;2023-06-24T11:22:40;28.70;71.60
47765;DHT22;33529;49.242;8.670;2023-06-24T11:25:23;28.90;72.70
47765;DHT22;33529;49.242;8.670;2023-06-24T11:27:51;29.20;74.80
47765;DHT22;33529;49.242;8.670;2023-06-24T11:30:20;29.30;70.00
47765;DHT22;33529;49.242;8.670;2023-06-24T11:32:47;29.10;72.40
47765;DHT22;33529;49.242;8.670;2023-06-24T11:35:19;29.10;70.50
47765;DHT22;33529;49.242;8.670;2023-06-24T11:37:47;29.10;70.30
47765;DHT22;33529;49.242;8.670;2023-06-24T11:40:18;28.80;70.00
47765;DHT22;33529;49.242;8.670;2023-06-24T11:42:46;28.70;72.60
47765;DHT22;33529;49.242;8.670;2023-06-24T11:45:20;28.70;71.30
47765;DHT22;33529;49.242;8.670;2023-06-24T11:47:47;28.50;70.40
47765;DHT22;33529;49.242;8.670;2023-06-24T11:50:15;28.50;70.70
47765;DHT22;33529;49.242;8.670;2023-06-24T11:52:47;28.40;72.00
47765;DHT22;33529;49.242;8.670;2023-06-24T11:55:23;28.50;71.90
47765;DHT22;33529;49.242;8.670;2023-06-24T11:58:01;28.60;71.20
47765;DHT22;33529;49.242;8.670;2023-06-24T12:00:40;28.40;71.20
47765;DHT22;33529;49.242;8.670;2023-06-24T12:03:11;28.50;72.60
47765;DHT22;33529;49.242;8.670;2023-06-24T12:05:40;28.50;71.80
47765;DHT22;33529;49.242;8.670;2023-06-24T12:08:12;28.40;70.60
47765;DHT22;33529;49.242;8.670;2023-06-24T12:10:44;28.10;71.30
47765;DHT22;33529;49.242;8.670;2023-06-24T12:13:11;28.00;70.90
47765;DHT22;33529;49.242;8.670;2023-06-24T12:15:38;27.80;74.50
47765;DHT22;33529;49.242;8.670;2023-06-24T12:18:05;27.90;71.90
47765;DHT22;33529;49.242;8.670;2023-06-24T12:20:33;28.20;72.50
47765;DHT22;33529;49.242;8.670;2023-06-24T12:23:04;28.30;71.70
47765;DHT22;33529;49.242;8.670;2023-06-24T12:25:31;28.20;70.90
47765;DHT22;33529;49.242;8.670;2023-06-24T12:27:58;27.90;71.20
47765;DHT22;33529;49.242;8.670;2023-06-24T12:30:28;27.60;69.50
47765;DHT22;33529;49.242;8.670;2023-06-24T12:32:56;27.80;67.80
47765;DHT22;33529;49.242;8.670;2023-06-24T12:35:23;28.10;69.80
47765;DHT22;33529;49.242;8.670;2023-06-24T12:37:54;28.20;66.70
47765;DHT22;33529;49.242;8.670;2023-06-24T12:40:21;28.50;67.50
47765;DHT22;33529;49.242;8.670;2023-06-24T12:42:48;28.60;66.80
47765;DHT22;33529;49.242;8.670;2023-06-24T12:45:15;28.80;66.30
47765;DHT22;33529;49.242;8.670;2023-06-24T12:47:42;28.90;65.10
47765;DHT22;33529;49.242;8.670;2023-06-24T12:50:09;29.10;65.10
47765;DHT22;33529;49.242;8.670;2023-06-24T12:52:36;29.00;64.60
47765;DHT22;33529;49.242;8.670;2023-06-24T12:55:05;28.80;65.10
47765;DHT22;33529;49.242;8.670;2023-06-24T12:57:35;28.90;66.70
47765;DHT22;33529;49.242;8.670;2023-06-24T13:00:03;29.00;66.10
47765;DHT22;33529;49.242;8.670;2023-06-24T13:02:32;29.10;65.50
47765;DHT22;33529;49.242;8.670;2023-06-24T13:04:59;29.30;64.50
47765;DHT22;33529;49.242;8.670;2023-06-24T13:07:26;29.70;65.40
47765;DHT22;33529;49.242;8.670;2023-06-24T13:09:53;29.80;65.50
47765;DHT22;33529;49.242;8.670;2023-06-24T13:12:20;29.80;67.30
47765;DHT22;33529;49.242;8.670;2023-06-24T13:14:47;29.80;64.00
47765;DHT22;33529;49.242;8.670;2023-06-24T13:17:14;29.80;66.10
47765;DHT22;33529;49.242;8.670;2023-06-24T13:19:41;29.90;66.20
47765;DHT22;33529;49.242;8.670;2023-06-24T13:22:07;30.10;66.30
47765;DHT22;33529;49.242;8.670;2023-06-24T13:24:35;30.00;63.10
47765;DHT22;33529;49.242;8.670;2023-06-24T13:27:02;30.30;65.40
47765;DHT22;33529;49.242;8.670;2023-06-24T13:29:29;30.50;62.80
47765;DHT22;33529;49.242;8.670;2023-06-24T13:31:56;30.60;65.30
47765;DHT22;33529;49.242;8.670;2023-06-24T13:34:23;30.70;64.80
47765;DHT22;33529;49.242;8.670;2023-06-24T13:36:50;30.70;64.80
47765;DHT22;33529;49.242;8.670;2023-06-24T13:39:17;30.90;65.00
47765;DHT22;33529;49.242;8.670;2023-06-24T13:41:45;31.20;63.90
47765;DHT22;33529;49.242;8.670;2023-06-24T13:44:12;31.20;64.50
47765;DHT22;33529;49.242;8.670;2023-06-24T13:46:38;31.60;64.70
47765;DHT22;33529;49.242;8.670;2023-06-24T13:49:05;31.80;62.80
47765;DHT22;33529;49.242;8.670;2023-06-24T13:51:32;31.80;64.40
47765;DHT22;33529;49.242;8.670;2023-06-24T13:53:59;31.30;64.00
47765;DHT22;33529;49.242;8.670;2023-06-24T13:56:27;31.30;63.60
47765;DHT22;33529;49.242;8.670;2023-06-24T13:58:54;30.70;64.30
47765;DHT22;33529;49.242;8.670;2023-06-24T14:01:21;30.30;65.30
47765;DHT22;33529;49.242;8.670;2023-06-24T14:03:50;30.00;64.10
47765;DHT22;33529;49.242;8.670;2023-06-24T14:06:19;29.90;64.80
47765;DHT22;33529;49.242;8.670;2023-06-24T14:08:46;30.80;65.60
47765;DHT22;33529;49.242;8.670;2023-06-24T14:11:13;32.00;63.20
47765;DHT22;33529;49.242;8.670;2023-06-24T14:13:41;33.40;62.60
47765;DHT22;33529;49.242;8.670;2023-06-24T14:16:09;34.90;63.80
47765;DHT22;33529;49.242;8.670;2023-06-24T14:18:37;36.00;57.60
47765;DHT22;33529;49.242;8.670;2023-06-24T14:21:07;36.10;59.30
47765;DHT22;33529;49.242;8.670;2023-06-24T14:23:34;36.00;57.90
47765;DHT22;33529;49.242;8.670;2023-06-24T14:26:02;35.30;56.40
47765;DHT22;33529;49.242;8.670;2023-06-24T14:28:29;34.10;60.30
47765;DHT22;33529;49.242;8.670;2023-06-24T14:30:59;34.30;60.30
47765;DHT22;33529;49.242;8.670;2023-06-24T14:33:25;35.60;59.30
47765;DHT22;33529;49.242;8.670;2023-06-24T14:35:52;36.60;55.80
47765;DHT22;33529;49.242;8.670;2023-06-24T14:38:19;37.00;57.90
47765;DHT22;33529;49.242;8.670;2023-06-24T14:40:46;37.60;54.70
47765;DHT22;33529;49.242;8.670;2023-06-24T14:43:14;38.00;55.60
47765;DHT22;33529;49.242;8.670;2023-06-24T14:45:41;39.00;56.00
47765;DHT22;33529;49.242;8.670;2023-06-24T14:48:08;39.50;54.50
47765;DHT22;33529;49.242;8.670;2023-06-24T14:50:35;39.00;53.30
47765;DHT22;33529;49.242;8.670;2023-06-24T14:53:03;37.40;54.60
47765;DHT22;33529;49.242;8.670;2023-06-24T14:55:30;36.30;55.10
47765;DHT22;33529;49.242;8.670;2023-06-24T14:57:56;36.40;55.50
47765;DHT22;33529;49.242;8.670;2023-06-24T15:00:23;37.30;54.30
47765;DHT22;33529;49.242;8.670;2023-06-24T15:02:50;36.80;54.40
47765;DHT22;33529;49.242;8.670;2023-06-24T15:05:17;35.80;54.10
47765;DHT22;33529;49.242;8.670;2023-06-24T15:07:44;36.60;55.20
47765;DHT22;33529;49.242;8.670;2023-06-24T15:10:11;37.50;52.90
47765;DHT22;33529;49.242;8.670;2023-06-24T15:12:38;38.90;53.10
47765;DHT22;33529;49.242;8.670;2023-06-24T15:15:06;39.70;53.20
47765;DHT22;33529;49.242;8.670;2023-06-24T15:17:33;40.30;51.50
47765;DHT22;33529;49.242;8.670;2023-06-24T15:20:02;39.30;52.80
47765;DHT22;33529;49.242;8.670;2023-06-24T15:22:31;40.10;52.80
47765;DHT22;33529;49.242;8.670;2023-06-24T15:24:58;40.90;49.90
47765;DHT22;33529;49.242;8.670;2023-06-24T15:27:25;41.40;50.30
47765;DHT22;33529;49.242;8.670;2023-06-24T15:29:52;41.70;50.40
47765;DHT22;33529;49.242;8.670;2023-06-24T15:32:19;42.40;50.40
47765;DHT22;33529;49.242;8.670;2023-06-24T15:34:45;41.10;49.20
47765;DHT22;33529;49.242;8.670;2023-06-24T15:37:12;38.90;49.50
47765;DHT22;33529;49.242;8.670;2023-06-24T15:39:42;37.10;51.00
47765;DHT22;33529;49.242;8.670;2023-06-24T15:42:09;35.80;53.40
47765;DHT22;33529;49.242;8.670;2023-06-24T15:44:38;35.50;55.30
47765;DHT22;33529;49.242;8.670;2023-06-24T15:47:07;37.00;53.50
47765;DHT22;33529;49.242;8.670;2023-06-24T15:49:34;38.30;50.70
47765;DHT22;33529;49.242;8.670;2023-06-24T15:52:01;38.40;51.50
47765;DHT22;33529;49.242;8.670;2023-06-24T15:54:28;39.30;51.40
47765;DHT22;33529;49.242;8.670;2023-06-24T15:56:54;40.30;50.30
47765;DHT22;33529;49.242;8.670;2023-06-24T15:59:21;40.90;50.90
47765;DHT22;33529;49.242;8.670;2023-06-24T16:01:48;42.10;50.20
47765;DHT22;33529;49.242;8.670;2023-06-24T16:04:15;42.50;48.20
47765;DHT22;33529;49.242;8.670;2023-06-24T16:06:45;42.00;48.40